Time;durP1;ratioP1;P1;durP2;ratioP2;P2;SDS_P1;SDS_P2;PMS_P1;PMS_P2;Temp;Humidity;BMP_temperature;BMP_pressure;BME280_temperature;BME280_humidity;BME280_pressure;Samples;Min_cycle;Max_cycle;Signal;HPM_P1;HPM_P2
2022/03/16 00:00:08;;;;;;;25.00;14.00;;;6.10;99.90;;;;;;5060905;28;20176;-71
2022/03/16 00:02:34;;;;;;;28.00;14.07;;;6.10;99.90;;;;;;5069213;28;20626;-71
2022/03/16 00:05:00;;;;;;;23.23;13.65;;;6.10;99.90;;;;;;5069193;28;20240;-71
2022/03/16 00:07:26;;;;;;;24.95;13.25;;;6.10;99.90;;;;;;5069137;28;20164;-71
2022/03/16 00:09:52;;;;;;;20.20;13.13;;;6.20;99.90;;;;;;5066335;28;20198;-71
2022/03/16 00:12:19;;;;;;;26.10;13.63;;;6.20;99.90;;;;;;5067783;28;20165;-71
2022/03/16 00:14:46;;;;;;;25.48;13.73;;;6.10;99.90;;;;;;5064966;28;20157;-71
2022/03/16 00:17:12;;;;;;;27.73;13.82;;;6.20;99.90;;;;;;5027964;28;20201;-71
2022/03/16 00:19:41;;;;;;;32.83;14.00;;;6.20;99.90;;;;;;5029251;28;20218;-71
2022/03/16 00:22:07;;;;;;;22.48;12.90;;;6.20;99.90;;;;;;5066629;28;20188;-71
2022/03/16 00:24:33;;;;;;;25.05;14.07;;;6.10;99.90;;;;;;5062351;28;20197;-71
2022/03/16 00:26:59;;;;;;;26.25;14.40;;;6.00;99.90;;;;;;5048756;28;20208;-71
2022/03/16 00:29:26;;;;;;;26.95;13.43;;;6.00;99.90;;;;;;5049091;28;20168;-71
2022/03/16 00:31:51;;;;;;;22.40;13.57;;;6.00;99.90;;;;;;5048823;28;20200;-71
2022/03/16 00:34:18;;;;;;;26.35;12.63;;;6.00;99.90;;;;;;5048732;28;20197;-71
2022/03/16 00:36:44;;;;;;;31.45;14.10;;;6.00;99.90;;;;;;5048566;28;20205;-71
2022/03/16 00:39:10;;;;;;;29.55;13.32;;;6.00;99.90;;;;;;5030152;28;20178;-71
2022/03/16 00:41:37;;;;;;;21.20;13.10;;;6.00;99.90;;;;;;5047850;28;20189;-71
2022/03/16 00:44:04;;;;;;;25.95;14.50;;;5.90;99.90;;;;;;5036378;28;20228;-71
2022/03/16 00:46:30;;;;;;;25.77;13.57;;;6.00;99.90;;;;;;5048819;28;20150;-71
2022/03/16 00:48:56;;;;;;;25.20;12.48;;;5.90;99.90;;;;;;5048609;28;20188;-71
2022/03/16 00:51:23;;;;;;;26.70;14.02;;;5.90;99.90;;;;;;5048829;28;20161;-71
2022/03/16 00:53:49;;;;;;;22.80;12.52;;;5.90;99.90;;;;;;5048416;28;20200;-71
2022/03/16 00:56:14;;;;;;;21.73;12.43;;;5.90;99.90;;;;;;5049907;28;20165;-71
2022/03/16 00:58:41;;;;;;;23.48;12.75;;;5.90;99.90;;;;;;5068571;28;20310;-71
2022/03/16 01:01:08;;;;;;;20.80;12.88;;;6.00;99.90;;;;;;5068772;28;20157;-71
2022/03/16 01:03:35;;;;;;;31.73;13.13;;;6.00;99.90;;;;;;5068255;28;20196;-71
2022/03/16 01:06:02;;;;;;;23.75;11.82;;;6.00;99.90;;;;;;5068655;28;20161;-71
2022/03/16 01:08:28;;;;;;;23.25;12.25;;;5.90;99.90;;;;;;5068382;28;20187;-71
2022/03/16 01:10:55;;;;;;;19.05;11.45;;;6.00;99.90;;;;;;5068610;28;20157;-71
2022/03/16 01:13:21;;;;;;;23.50;12.68;;;6.00;99.90;;;;;;5068490;28;20250;-71
2022/03/16 01:15:47;;;;;;;27.60;12.13;;;6.10;99.90;;;;;;5068596;28;20225;-71
2022/03/16 01:18:13;;;;;;;28.30;13.82;;;6.10;99.90;;;;;;5068459;28;20189;-71
2022/03/16 01:20:38;;;;;;;27.83;13.80;;;6.10;99.90;;;;;;5068673;28;20161;-71
2022/03/16 01:23:04;;;;;;;22.45;14.30;;;6.10;99.90;;;;;;5054059;28;20192;-71
2022/03/16 01:25:30;;;;;;;23.10;12.20;;;6.00;99.90;;;;;;5050623;28;20234;-71
2022/03/16 01:27:56;;;;;;;25.63;15.25;;;6.00;99.90;;;;;;5051923;28;20212;-71
2022/03/16 01:30:22;;;;;;;25.10;14.55;;;6.00;99.90;;;;;;5057744;28;20172;-71
2022/03/16 01:32:48;;;;;;;24.40;13.43;;;5.90;99.90;;;;;;5051775;28;20196;-71
2022/03/16 01:35:14;;;;;;;20.27;13.32;;;5.90;99.90;;;;;;5067658;28;20179;-71
2022/03/16 01:37:43;;;;;;;29.60;14.48;;;5.80;99.90;;;;;;5053626;28;20218;-71
2022/03/16 01:40:10;;;;;;;22.75;13.25;;;5.80;99.90;;;;;;5053532;28;20620;-71
2022/03/16 01:42:36;;;;;;;22.85;13.77;;;5.90;99.90;;;;;;5053692;28;20192;-71
2022/03/16 01:45:03;;;;;;;26.92;13.32;;;5.90;99.90;;;;;;5071368;28;20173;-71
2022/03/16 01:47:29;;;;;;;23.50;13.00;;;6.00;99.90;;;;;;5071305;28;20253;-70
2022/03/16 01:49:55;;;;;;;25.90;14.65;;;6.00;99.90;;;;;;5071186;28;20224;-71
2022/03/16 01:52:24;;;;;;;31.27;12.43;;;6.20;99.90;;;;;;5071287;28;20188;-71
2022/03/16 01:54:50;;;;;;;25.92;12.88;;;6.30;99.90;;;;;;5071447;28;20195;-71
2022/03/16 01:57:17;;;;;;;32.30;14.95;;;6.40;99.90;;;;;;5053234;28;20232;-71
2022/03/16 01:59:44;;;;;;;20.27;13.02;;;6.30;99.90;;;;;;5071352;28;20160;-71
2022/03/16 02:02:12;;;;;;;20.38;13.25;;;6.30;99.90;;;;;;5071306;28;20172;-71
2022/03/16 02:04:39;;;;;;;19.98;11.48;;;6.30;99.90;;;;;;5071175;28;20184;-71
2022/03/16 02:07:05;;;;;;;23.25;12.85;;;6.30;99.90;;;;;;5071324;28;20638;-71
2022/03/16 02:09:32;;;;;;;24.25;13.35;;;6.30;99.90;;;;;;5071191;28;20156;-71
2022/03/16 02:11:59;;;;;;;24.30;12.73;;;6.30;99.90;;;;;;5071109;28;20610;-71
2022/03/16 02:14:25;;;;;;;20.38;13.88;;;6.20;99.90;;;;;;5071052;28;20199;-71
2022/03/16 02:16:51;;;;;;;23.23;13.75;;;6.20;99.90;;;;;;5070935;28;20673;-71
2022/03/16 02:19:18;;;;;;;22.08;14.40;;;6.20;99.90;;;;;;5053011;28;20188;-71
2022/03/16 02:21:51;;;;;;;25.08;12.23;;;6.20;99.90;;;;;;5070977;28;20165;-71
2022/03/16 02:24:17;;;;;;;19.90;11.45;;;6.20;99.90;;;;;;5070475;28;20254;-70
2022/03/16 02:26:43;;;;;;;21.13;13.93;;;6.20;99.90;;;;;;5070804;28;20185;-70
2022/03/16 02:29:08;;;;;;;23.15;12.25;;;6.30;99.90;;;;;;5052904;28;20168;-70
2022/03/16 02:31:34;;;;;;;28.10;12.85;;;6.30;99.90;;;;;;5070509;28;20193;-70
2022/03/16 02:34:00;;;;;;;22.70;12.32;;;6.40;99.90;;;;;;5067150;28;20260;-71
2022/03/16 02:36:26;;;;;;;20.45;11.85;;;6.40;99.90;;;;;;5052564;28;20184;-71
2022/03/16 02:38:52;;;;;;;18.13;9.65;;;6.50;99.90;;;;;;5070416;28;20191;-72
2022/03/16 02:41:18;;;;;;;22.40;11.35;;;6.60;99.90;;;;;;5070577;28;20161;-71
2022/03/16 02:43:43;;;;;;;16.05;9.63;;;6.80;99.90;;;;;;5070379;28;20188;-72
2022/03/16 02:46:09;;;;;;;13.25;8.02;;;6.90;99.90;;;;;;5070438;28;20156;-71
2022/03/16 02:48:35;;;;;;;17.67;8.73;;;7.00;99.90;;;;;;5052418;28;20176;-71
2022/03/16 02:51:01;;;;;;;15.13;7.47;;;7.00;99.90;;;;;;5052281;28;20176;-72
2022/03/16 02:53:27;;;;;;;9.93;6.55;;;7.20;99.90;;;;;;5070148;28;20216;-71
2022/03/16 02:55:53;;;;;;;13.75;7.78;;;7.30;99.90;;;;;;5069484;28;20191;-71
2022/03/16 02:58:19;;;;;;;29.35;7.75;;;7.50;99.90;;;;;;5069918;28;20224;-70
2022/03/16 03:00:45;;;;;;;13.38;5.93;;;7.60;99.90;;;;;;5052308;28;20279;-71
2022/03/16 03:03:11;;;;;;;10.20;4.32;;;7.70;99.90;;;;;;5069924;28;20559;-71
2022/03/16 03:05:38;;;;;;;10.27;4.82;;;7.90;99.90;;;;;;5052164;28;20187;-71
2022/03/16 03:08:04;;;;;;;11.88;4.82;;;8.20;99.90;;;;;;5069645;28;20187;-71
2022/03/16 03:10:30;;;;;;;15.70;4.53;;;8.40;99.90;;;;;;5051996;28;20164;-71
2022/03/16 03:12:56;;;;;;;8.80;3.47;;;8.60;99.90;;;;;;5069849;28;20195;-71
2022/03/16 03:15:21;;;;;;;11.60;4.53;;;8.80;99.90;;;;;;5069897;28;20651;-71
2022/03/16 03:17:47;;;;;;;7.03;3.45;;;8.80;99.90;;;;;;5051788;28;20208;-71
2022/03/16 03:20:13;;;;;;;10.70;3.55;;;8.70;99.90;;;;;;5069898;28;20165;-71
2022/03/16 03:22:40;;;;;;;11.80;3.80;;;8.60;99.90;;;;;;5069784;28;20691;-71
2022/03/16 03:25:11;;;;;;;4.65;3.20;;;8.50;99.90;;;;;;5048423;28;20185;-70
2022/03/16 03:27:37;;;;;;;11.00;3.15;;;8.60;99.90;;;;;;5049681;28;20165;-71
2022/03/16 03:30:04;;;;;;;5.82;2.70;;;8.90;99.90;;;;;;5052336;28;20184;-70
2022/03/16 03:32:30;;;;;;;7.85;2.78;;;9.20;99.90;;;;;;5047672;28;20308;-70
2022/03/16 03:34:56;;;;;;;6.88;3.42;;;9.30;99.90;;;;;;5049203;28;20182;-71
2022/03/16 03:37:25;;;;;;;11.07;3.58;;;9.50;99.90;;;;;;5048590;28;20220;-70
2022/03/16 03:39:52;;;;;;;6.18;2.67;;;9.50;99.90;;;;;;5048958;28;20189;-70
2022/03/16 03:42:18;;;;;;;6.50;3.13;;;9.40;99.90;;;;;;5066893;28;20236;-71
2022/03/16 03:44:44;;;;;;;10.35;3.83;;;9.30;99.90;;;;;;5067052;28;20177;-71
2022/03/16 03:47:10;;;;;;;6.88;3.35;;;9.20;99.90;;;;;;5051077;28;20203;-70
2022/03/16 03:49:39;;;;;;;6.82;3.53;;;9.10;99.90;;;;;;5068914;28;20235;-71
2022/03/16 03:52:06;;;;;;;8.57;4.60;;;9.00;99.90;;;;;;5051041;28;20176;-71
2022/03/16 03:54:32;;;;;;;10.27;3.78;;;9.00;99.90;;;;;;5069131;28;20180;-71
2022/03/16 03:56:59;;;;;;;8.93;3.55;;;8.80;99.90;;;;;;5068658;28;20592;-71
2022/03/16 03:59:24;;;;;;;7.18;3.78;;;8.70;99.90;;;;;;5069049;28;20195;-71
2022/03/16 04:01:51;;;;;;;9.32;3.40;;;8.60;99.90;;;;;;5068938;28;20192;-71
2022/03/16 04:04:18;;;;;;;7.70;4.03;;;8.50;99.90;;;;;;5069030;28;20161;-71
2022/03/16 04:06:43;;;;;;;8.05;4.10;;;8.50;99.90;;;;;;5068530;28;20157;-71
2022/03/16 04:09:10;;;;;;;12.07;3.67;;;8.40;99.90;;;;;;5068956;28;20163;-71
2022/03/16 04:11:37;;;;;;;12.73;4.25;;;8.30;99.90;;;;;;5068810;28;20219;-71
2022/03/16 04:14:04;;;;;;;15.98;4.80;;;8.20;99.90;;;;;;5068931;28;20160;-71
2022/03/16 04:16:30;;;;;;;15.95;4.80;;;8.20;99.90;;;;;;5069026;28;20157;-71
2022/03/16 04:18:56;;;;;;;14.75;3.63;;;8.10;99.90;;;;;;5050829;28;20200;-71
2022/03/16 04:21:22;;;;;;;10.30;4.03;;;8.20;99.90;;;;;;5068737;28;20153;-71
2022/03/16 04:23:49;;;;;;;9.23;3.35;;;8.20;99.90;;;;;;5068836;28;20168;-70
2022/03/16 04:26:15;;;;;;;14.95;4.72;;;8.60;99.90;;;;;;5068830;28;20157;-70
2022/03/16 04:28:41;;;;;;;19.00;9.25;;;8.70;99.90;;;;;;5050744;28;20160;-70
2022/03/16 04:31:08;;;;;;;22.10;11.05;;;8.60;99.90;;;;;;5068692;28;20656;-70
2022/03/16 04:33:34;;;;;;;25.73;13.20;;;8.10;99.90;;;;;;5068692;28;20219;-71
2022/03/16 04:36:00;;;;;;;23.67;12.85;;;7.70;99.90;;;;;;5050594;28;20648;-71
2022/03/16 04:38:26;;;;;;;21.30;12.30;;;7.50;99.90;;;;;;5050601;28;20192;-71
2022/03/16 04:40:52;;;;;;;23.77;12.93;;;7.20;99.90;;;;;;5050250;28;20259;-71
2022/03/16 04:43:18;;;;;;;23.85;12.20;;;7.10;99.90;;;;;;5068522;28;20220;-71
2022/03/16 04:45:44;;;;;;;25.10;12.30;;;7.00;99.90;;;;;;5068616;28;20157;-71
2022/03/16 04:48:11;;;;;;;20.88;13.15;;;6.70;99.90;;;;;;5068423;28;20185;-71
2022/03/16 04:50:39;;;;;;;18.52;12.35;;;6.50;99.90;;;;;;5068393;28;20167;-71
2022/03/16 04:53:05;;;;;;;19.23;12.63;;;6.50;99.90;;;;;;5068454;28;20719;-71
2022/03/16 04:55:33;;;;;;;22.33;13.18;;;6.30;99.90;;;;;;5068326;28;20188;-71
2022/03/16 04:58:00;;;;;;;23.20;12.70;;;6.30;99.90;;;;;;5071948;28;20239;-71
2022/03/16 05:00:26;;;;;;;20.98;11.07;;;6.30;99.90;;;;;;5072173;28;20160;-71
2022/03/16 05:02:52;;;;;;;23.60;11.98;;;6.30;99.90;;;;;;5054023;28;20192;-71
2022/03/16 05:05:18;;;;;;;16.40;11.43;;;6.30;99.90;;;;;;5072199;28;20224;-71
2022/03/16 05:07:44;;;;;;;21.88;11.93;;;6.30;99.90;;;;;;5071964;28;20168;-71
2022/03/16 05:10:09;;;;;;;19.92;11.52;;;6.20;99.90;;;;;;5053995;28;20172;-71
2022/03/16 05:12:39;;;;;;;19.15;10.88;;;6.30;99.90;;;;;;5071963;28;20196;-70
2022/03/16 05:15:23;;;;;;;21.50;11.32;;;6.20;99.90;;;;;;5072023;28;20157;-71
2022/03/16 05:17:49;;;;;;;18.02;10.85;;;6.20;99.90;;;;;;5071763;28;20237;-71
2022/03/16 05:20:16;;;;;;;20.58;12.05;;;6.10;99.90;;;;;;5071842;28;20176;-71
2022/03/16 05:22:50;;;;;;;24.55;12.82;;;6.10;99.90;;;;;;5071830;28;20272;-71
2022/03/16 05:25:22;;;;;;;20.35;10.48;;;6.20;99.90;;;;;;5071703;28;20222;-71
2022/03/16 05:27:48;;;;;;;24.13;11.40;;;6.20;99.90;;;;;;5071723;28;20153;-71
2022/03/16 05:30:14;;;;;;;19.63;11.75;;;6.20;99.90;;;;;;5071786;28;20176;-71
2022/03/16 05:32:42;;;;;;;21.40;11.23;;;6.20;99.90;;;;;;5053253;28;20196;-70
2022/03/16 05:35:10;;;;;;;23.67;12.63;;;6.30;99.90;;;;;;5071562;28;20630;-71
2022/03/16 05:37:36;;;;;;;39.10;13.27;;;6.40;99.90;;;;;;5071311;28;20219;-71
2022/03/16 05:40:04;;;;;;;22.02;12.88;;;6.40;99.90;;;;;;5071278;28;20235;-70
2022/03/16 05:42:29;;;;;;;28.08;11.60;;;6.30;99.90;;;;;;5071038;28;20279;-70
2022/03/16 05:44:56;;;;;;;28.08;10.88;;;6.30;99.90;;;;;;5070978;28;20157;-71
2022/03/16 05:47:23;;;;;;;20.58;11.70;;;6.30;99.90;;;;;;5071209;28;20221;-71
2022/03/16 05:49:53;;;;;;;23.65;11.35;;;6.40;99.90;;;;;;5073309;28;20188;-71
2022/03/16 05:52:21;;;;;;;25.33;11.82;;;6.40;99.90;;;;;;5075370;28;20195;-71
2022/03/16 05:54:53;;;;;;;30.75;13.43;;;6.40;99.90;;;;;;5063650;28;20203;-71
2022/03/16 05:57:20;;;;;;;28.30;12.85;;;6.40;99.90;;;;;;5056043;28;20244;-71
2022/03/16 05:59:47;;;;;;;20.42;11.20;;;6.50;99.90;;;;;;5052465;28;20315;-71
2022/03/16 06:02:14;;;;;;;36.08;12.95;;;6.50;99.90;;;;;;5066279;28;20193;-70
2022/03/16 06:04:41;;;;;;;21.60;11.50;;;6.50;99.90;;;;;;5058147;28;20164;-70
2022/03/16 06:07:08;;;;;;;24.80;12.00;;;6.60;99.90;;;;;;5057327;28;20173;-70
2022/03/16 06:09:35;;;;;;;22.33;12.05;;;6.60;99.90;;;;;;5060068;28;20165;-70
2022/03/16 06:12:02;;;;;;;18.08;11.50;;;6.60;99.90;;;;;;5053552;28;20219;-71
2022/03/16 06:14:29;;;;;;;26.13;11.82;;;6.60;99.90;;;;;;5063968;28;20591;-70
2022/03/16 06:16:56;;;;;;;27.85;12.90;;;6.70;99.90;;;;;;5060560;28;20229;-70
2022/03/16 06:19:22;;;;;;;27.80;13.13;;;6.80;99.90;;;;;;5055276;28;20173;-70
2022/03/16 06:21:48;;;;;;;23.00;12.18;;;6.90;99.90;;;;;;5066529;28;20196;-71
2022/03/16 06:24:14;;;;;;;22.73;12.65;;;6.90;99.90;;;;;;5050770;28;20197;-71
2022/03/16 06:26:41;;;;;;;26.55;12.02;;;7.00;99.90;;;;;;5043837;28;20161;-71
2022/03/16 06:29:08;;;;;;;27.00;13.02;;;7.00;99.90;;;;;;5043926;28;20166;-71
2022/03/16 06:31:34;;;;;;;20.20;11.95;;;7.10;99.90;;;;;;5045409;28;20168;-71
2022/03/16 06:34:01;;;;;;;24.33;11.00;;;7.20;99.90;;;;;;5044008;28;20208;-71
2022/03/16 06:36:27;;;;;;;23.58;12.20;;;7.30;99.90;;;;;;5046061;28;20209;-71
2022/03/16 06:38:54;;;;;;;22.30;10.35;;;7.40;99.90;;;;;;5038627;28;20209;-71
2022/03/16 06:41:20;;;;;;;21.65;10.10;;;7.60;99.90;;;;;;5040235;28;20165;-71
2022/03/16 06:43:45;;;;;;;23.88;11.10;;;7.60;99.90;;;;;;5038160;28;20241;-71
2022/03/16 06:46:11;;;;;;;20.60;10.25;;;7.70;99.90;;;;;;5040622;28;20170;-71
2022/03/16 06:48:37;;;;;;;34.70;13.00;;;7.90;99.90;;;;;;5040516;28;20192;-71
2022/03/16 06:51:03;;;;;;;25.10;11.05;;;8.00;99.90;;;;;;5037820;28;20170;-71
2022/03/16 06:53:29;;;;;;;29.15;10.77;;;8.10;99.90;;;;;;5038934;28;20198;-70
2022/03/16 06:55:55;;;;;;;22.33;11.63;;;8.30;99.90;;;;;;5040411;28;20252;-70
2022/03/16 06:58:21;;;;;;;21.10;11.68;;;8.40;99.90;;;;;;5048299;28;20231;-70
2022/03/16 07:00:48;;;;;;;26.40;11.65;;;8.50;99.90;;;;;;5049310;28;20181;-71
2022/03/16 07:03:14;;;;;;;23.33;12.32;;;8.50;99.90;;;;;;5047815;28;20189;-70
2022/03/16 07:05:41;;;;;;;24.10;12.07;;;8.50;99.90;;;;;;5049272;28;20547;-71
2022/03/16 07:08:13;;;;;;;26.27;11.57;;;8.60;99.90;;;;;;5049038;28;20220;-70
2022/03/16 07:10:40;;;;;;;33.75;12.60;;;8.70;99.90;;;;;;5065616;28;20260;-70
2022/03/16 07:13:09;;;;;;;31.30;11.88;;;8.70;99.90;;;;;;5055370;28;20264;-70
2022/03/16 07:15:35;;;;;;;28.00;13.45;;;8.70;99.90;;;;;;5057680;28;20177;-70
2022/03/16 07:18:02;;;;;;;36.40;12.85;;;8.80;99.90;;;;;;5047556;28;20227;-70
2022/03/16 07:20:32;;;;;;;23.92;11.65;;;8.80;99.90;;;;;;5048467;28;20659;-70
2022/03/16 07:23:07;;;;;;;32.03;12.57;;;8.90;99.90;;;;;;5048083;28;20192;-70
2022/03/16 07:25:32;;;;;;;24.73;10.85;;;9.10;99.90;;;;;;5047987;28;20195;-70
2022/03/16 07:27:59;;;;;;;18.38;10.90;;;9.20;99.90;;;;;;5049935;28;20215;-71
2022/03/16 07:30:25;;;;;;;28.85;11.45;;;9.10;99.90;;;;;;5055419;28;20185;-71
2022/03/16 07:32:51;;;;;;;20.95;11.93;;;9.30;99.90;;;;;;5047858;28;20199;-70
2022/03/16 07:35:17;;;;;;;17.10;10.55;;;9.50;99.90;;;;;;5063380;28;20185;-70
2022/03/16 07:37:44;;;;;;;17.50;10.68;;;9.70;99.90;;;;;;5049006;28;20193;-72
2022/03/16 07:40:10;;;;;;;21.15;10.55;;;10.00;99.90;;;;;;5048909;28;20177;-72
2022/03/16 07:42:36;;;;;;;12.43;6.97;;;10.10;99.90;;;;;;5049462;28;20215;-72
2022/03/16 07:45:04;;;;;;;10.38;5.00;;;10.40;99.90;;;;;;5048403;28;20169;-72
2022/03/16 07:47:31;;;;;;;9.88;2.35;;;10.80;99.90;;;;;;5044685;28;20195;-72
2022/03/16 07:49:57;;;;;;;5.18;1.98;;;11.30;99.90;;;;;;5038525;28;20541;-73
2022/03/16 07:52:24;;;;;;;3.17;1.80;;;11.90;99.90;;;;;;5041899;28;20197;-72
2022/03/16 07:54:50;;;;;;;5.32;1.70;;;12.10;99.90;;;;;;5043039;28;20161;-72
2022/03/16 07:57:17;;;;;;;10.40;2.17;;;12.40;99.90;;;;;;5047448;28;20256;-73
2022/03/16 07:59:43;;;;;;;2.75;1.27;;;12.50;99.90;;;;;;5047867;28;20530;-72
2022/03/16 08:02:14;;;;;;;3.92;1.52;;;12.90;99.90;;;;;;5038628;28;20260;-73
2022/03/16 08:04:39;;;;;;;7.43;1.45;;;13.30;99.90;;;;;;5048548;28;20158;-73
2022/03/16 08:07:06;;;;;;;1.38;1.02;;;13.30;99.90;;;;;;5047549;28;20623;-72
2022/03/16 08:09:31;;;;;;;3.60;1.23;;;13.50;99.90;;;;;;5048878;28;20157;-71
2022/03/16 08:11:58;;;;;;;7.93;1.55;;;13.90;99.90;;;;;;5055983;28;20200;-72
2022/03/16 08:14:23;;;;;;;3.25;1.08;;;13.70;99.90;;;;;;5068592;28;20164;-72
2022/03/16 08:16:49;;;;;;;2.20;1.10;;;14.00;99.90;;;;;;5067554;28;20165;-71
2022/03/16 08:19:15;;;;;;;4.38;0.90;;;14.00;99.90;;;;;;5068607;28;20188;-72
2022/03/16 08:21:41;;;;;;;5.15;1.42;;;14.30;99.90;;;;;;5067156;28;20252;-71
2022/03/16 08:24:07;;;;;;;12.43;2.00;;;14.70;99.90;;;;;;5067121;28;20168;-72
2022/03/16 08:26:34;;;;;;;9.52;1.58;;;14.60;99.90;;;;;;5068544;28;20165;-71
2022/03/16 08:29:00;;;;;;;3.58;1.15;;;14.50;99.90;;;;;;5068686;28;20171;-71
2022/03/16 08:31:26;;;;;;;6.50;1.88;;;14.70;99.60;;;;;;5071547;28;20160;-71
2022/03/16 08:33:52;;;;;;;2.30;1.00;;;14.80;99.10;;;;;;5072604;28;20294;-71
2022/03/16 08:36:18;;;;;;;1.50;0.98;;;14.70;99.10;;;;;;5072608;28;20168;-71
2022/03/16 08:38:44;;;;;;;8.48;1.50;;;15.50;98.60;;;;;;5072297;28;20188;-72
2022/03/16 08:41:10;;;;;;;2.33;1.00;;;15.40;97.90;;;;;;5065071;28;20173;-71
2022/03/16 08:43:37;;;;;;;1.20;0.98;;;15.20;98.20;;;;;;5051398;28;20269;-71
2022/03/16 08:46:04;;;;;;;1.50;1.10;;;15.20;97.90;;;;;;5052554;28;20157;-70
2022/03/16 08:48:30;;;;;;;1.92;1.17;;;14.90;97.80;;;;;;5051069;28;20169;-70
2022/03/16 08:50:56;;;;;;;2.35;1.08;;;15.20;97.30;;;;;;5052367;28;20342;-70
2022/03/16 08:53:22;;;;;;;1.73;1.13;;;14.80;97.60;;;;;;5050515;28;20681;-70
2022/03/16 08:55:49;;;;;;;7.07;0.80;;;14.70;97.90;;;;;;5050886;28;20177;-70
2022/03/16 08:58:14;;;;;;;2.05;1.20;;;14.90;97.80;;;;;;5070424;28;20232;-70
2022/03/16 09:00:41;;;;;;;4.32;1.20;;;15.00;97.20;;;;;;5071963;28;20157;-70
2022/03/16 09:03:08;;;;;;;2.42;1.17;;;15.40;96.90;;;;;;5053499;28;20223;-69
2022/03/16 09:05:34;;;;;;;1.90;1.05;;;15.10;97.20;;;;;;5067209;28;20212;-70
2022/03/16 09:08:01;;;;;;;2.00;1.48;;;15.10;97.00;;;;;;5071619;28;20267;-71
2022/03/16 09:10:27;;;;;;;2.75;0.90;;;15.00;97.00;;;;;;5071547;28;20240;-71
2022/03/16 09:12:53;;;;;;;3.20;1.40;;;15.30;96.60;;;;;;5071569;28;20212;-70
2022/03/16 09:15:19;;;;;;;2.50;1.73;;;15.10;96.90;;;;;;5071232;28;20243;-70
2022/03/16 09:17:45;;;;;;;4.47;1.05;;;15.30;96.30;;;;;;5071355;28;20200;-70
2022/03/16 09:20:11;;;;;;;13.13;2.03;;;15.10;96.80;;;;;;5071340;28;20160;-70
2022/03/16 09:22:37;;;;;;;4.47;1.92;;;14.80;96.60;;;;;;5052055;28;20192;-71
2022/03/16 09:25:03;;;;;;;7.18;1.58;;;14.30;97.20;;;;;;5071001;28;20242;-71
2022/03/16 09:27:29;;;;;;;1.80;1.35;;;14.40;97.10;;;;;;5070480;28;20180;-71
2022/03/16 09:29:55;;;;;;;1.90;1.10;;;14.30;97.40;;;;;;5071379;28;20153;-70
2022/03/16 09:32:22;;;;;;;4.70;1.35;;;14.30;97.20;;;;;;5071047;28;20256;-70
2022/03/16 09:34:49;;;;;;;4.32;1.20;;;14.10;97.80;;;;;;5071187;28;20171;-70
2022/03/16 09:37:16;;;;;;;2.08;1.27;;;14.10;98.10;;;;;;5052951;28;20227;-71
2022/03/16 09:39:42;;;;;;;7.18;1.60;;;14.10;97.80;;;;;;5071239;28;20251;-71
2022/03/16 09:42:09;;;;;;;5.20;1.55;;;14.20;97.40;;;;;;5051879;28;20188;-71
2022/03/16 09:44:36;;;;;;;6.65;1.52;;;14.10;97.60;;;;;;5070884;28;20161;-70
2022/03/16 09:47:04;;;;;;;5.78;1.10;;;14.10;97.80;;;;;;5070740;28;20165;-70
2022/03/16 09:49:30;;;;;;;4.15;1.17;;;14.10;97.70;;;;;;5071144;28;20157;-70
2022/03/16 09:51:59;;;;;;;4.50;1.80;;;14.50;97.20;;;;;;5070730;28;20195;-70
2022/03/16 09:54:25;;;;;;;8.18;1.70;;;14.30;97.10;;;;;;5070625;28;20191;-71
2022/03/16 09:56:53;;;;;;;4.88;1.63;;;14.10;97.30;;;;;;5070443;28;20215;-70
2022/03/16 09:59:21;;;;;;;2.67;1.40;;;14.10;96.80;;;;;;5070852;28;20177;-70
2022/03/16 10:01:47;;;;;;;3.35;1.30;;;14.50;96.50;;;;;;5070426;28;20188;-71
2022/03/16 10:04:28;;;;;;;4.03;1.30;;;14.80;96.00;;;;;;5052695;28;20188;-71
2022/03/16 10:06:55;;;;;;;3.22;1.27;;;14.30;95.90;;;;;;5052669;28;20173;-71
2022/03/16 10:15:10;;;;;;;10.38;1.45;;;14.00;96.00;;;;;;5070881;28;20172;-72
2022/03/16 10:17:46;;;;;;;1.38;1.10;;;14.20;95.50;;;;;;5068391;28;20195;-70
2022/03/16 10:20:28;;;;;;;1.90;1.13;;;14.30;95.40;;;;;;5070605;28;20668;-71
2022/03/16 10:23:09;;;;;;;4.30;1.45;;;14.40;95.00;;;;;;5052161;28;20180;-71
2022/03/16 10:25:40;;;;;;;2.33;1.30;;;14.40;94.60;;;;;;5052435;28;20176;-72
2022/03/16 10:28:14;;;;;;;2.75;1.35;;;14.20;95.30;;;;;;5070337;28;20248;-73
2022/03/16 10:31:02;;;;;;;1.52;1.20;;;14.40;94.70;;;;;;5070459;28;20159;-72
2022/03/16 10:33:33;;;;;;;10.90;2.35;;;14.50;94.60;;;;;;5070128;28;20674;-72
2022/03/16 10:36:07;;;;;;;5.55;1.67;;;14.50;94.50;;;;;;5068967;28;20685;-73
2022/03/16 10:38:56;;;;;;;1.40;1.10;;;14.30;94.70;;;;;;5063737;28;20231;-72
2022/03/16 10:47:11;;;;;;;1.85;1.40;;;14.80;93.90;;;;;;5069722;28;20168;-72
2022/03/16 10:49:38;;;;;;;2.45;1.55;;;14.60;93.90;;;;;;5069736;28;20198;-72
2022/03/16 10:52:07;;;;;;;3.28;1.58;;;14.60;93.80;;;;;;5069534;28;20149;-72
2022/03/16 10:54:36;;;;;;;6.47;2.00;;;14.60;94.00;;;;;;5087631;28;20262;-73
2022/03/16 10:57:05;;;;;;;2.35;1.63;;;14.50;94.10;;;;;;5061342;28;20212;-75
2022/03/16 10:59:33;;;;;;;1.63;1.52;;;14.70;93.80;;;;;;5051691;28;20164;-73
2022/03/16 11:02:14;;;;;;;2.15;1.73;;;14.90;94.20;;;;;;5068754;28;20181;-73
2022/03/16 11:04:42;;;;;;;4.57;1.85;;;14.80;93.60;;;;;;5069482;28;20153;-73
2022/03/16 11:07:08;;;;;;;2.35;1.70;;;14.70;93.80;;;;;;5068979;28;20169;-73
2022/03/16 11:09:36;;;;;;;2.38;1.80;;;14.60;93.70;;;;;;5069360;28;20164;-72
2022/03/16 11:14:49;;;;;;;4.25;2.10;;;14.70;94.30;;;;;;5069345;28;20164;-72
2022/03/16 11:17:16;;;;;;;2.85;2.22;;;14.50;94.10;;;;;;5068983;28;20215;-73
2022/03/16 11:19:44;;;;;;;5.55;1.88;;;14.10;93.90;;;;;;5051179;28;20232;-73
2022/03/16 11:22:36;;;;;;;2.00;1.80;;;14.20;94.10;;;;;;5051263;28;20167;-72
2022/03/16 11:25:14;;;;;;;2.55;1.83;;;14.40;94.20;;;;;;5068921;28;20544;-73
2022/03/16 11:27:52;;;;;;;2.60;1.88;;;14.50;93.90;;;;;;5069465;28;20524;-72
2022/03/16 11:30:36;;;;;;;2.38;1.83;;;14.50;94.00;;;;;;5051314;28;20250;-73
2022/03/16 11:33:10;;;;;;;5.22;2.72;;;14.40;93.90;;;;;;5069324;28;20156;-73
2022/03/16 11:35:44;;;;;;;6.93;2.10;;;14.40;94.30;;;;;;5040315;28;20192;-73
2022/03/16 11:38:13;;;;;;;10.25;2.47;;;14.60;94.00;;;;;;5032428;28;20203;-73
2022/03/16 11:40:41;;;;;;;5.03;2.05;;;14.40;94.30;;;;;;5057338;28;20541;-72
2022/03/16 11:43:08;;;;;;;6.97;2.60;;;14.20;93.90;;;;;;5051193;28;20267;-72
2022/03/16 11:45:41;;;;;;;6.15;2.40;;;14.00;94.30;;;;;;5069173;28;20164;-72
2022/03/16 11:48:31;;;;;;;4.75;2.08;;;13.80;94.50;;;;;;5069116;28;20176;-72
2022/03/16 11:51:09;;;;;;;5.93;2.35;;;13.80;94.50;;;;;;5051097;28;20196;-71
2022/03/16 11:54:05;;;;;;;3.03;2.58;;;13.90;94.60;;;;;;5068577;28;20574;-73
2022/03/16 11:56:45;;;;;;;14.10;2.88;;;13.80;94.40;;;;;;5068667;28;20212;-72
2022/03/16 11:59:17;;;;;;;2.70;2.10;;;13.80;94.90;;;;;;5051062;28;20208;-73
2022/03/16 12:02:03;;;;;;;5.72;2.20;;;13.80;94.30;;;;;;5068971;28;20172;-73
2022/03/16 12:04:33;;;;;;;3.47;2.72;;;13.90;94.40;;;;;;5067817;28;20171;-73
2022/03/16 12:07:11;;;;;;;5.28;2.67;;;13.80;93.90;;;;;;5068699;28;20160;-72
2022/03/16 12:09:52;;;;;;;8.32;2.78;;;13.70;94.00;;;;;;5068338;28;20279;-72
2022/03/16 12:15:17;;;;;;;5.30;3.40;;;13.60;94.20;;;;;;5068712;28;20248;-72
2022/03/16 12:17:52;;;;;;;5.50;3.53;;;13.50;94.10;;;;;;5046471;28;20201;-73
2022/03/16 12:20:27;;;;;;;8.95;3.38;;;13.50;94.10;;;;;;5047315;28;20200;-72
2022/03/16 12:23:00;;;;;;;4.35;3.08;;;13.50;94.30;;;;;;5048696;28;20295;-72
2022/03/16 12:25:26;;;;;;;4.60;3.53;;;13.40;94.30;;;;;;5047401;28;20161;-74
2022/03/16 12:30:51;;;;;;;7.50;3.95;;;13.30;93.90;;;;;;5028992;28;20208;-73
2022/03/16 12:33:28;;;;;;;11.43;4.45;;;13.30;93.70;;;;;;5050013;28;20173;-71
2022/03/16 12:36:18;;;;;;;8.00;3.45;;;13.30;93.80;;;;;;5047247;28;20180;-71
2022/03/16 12:38:50;;;;;;;7.53;4.25;;;13.50;93.80;;;;;;5048514;28;20181;-73
2022/03/16 12:44:06;;;;;;;5.88;4.05;;;13.40;93.80;;;;;;5062169;28;20188;-72
2022/03/16 12:47:00;;;;;;;12.10;4.72;;;13.30;93.70;;;;;;5050233;28;20188;-71
2022/03/16 12:49:26;;;;;;;6.28;4.95;;;13.40;93.90;;;;;;5068032;28;20256;-71
2022/03/16 12:51:55;;;;;;;6.50;4.85;;;13.30;93.80;;;;;;5068123;28;20157;-72
2022/03/16 12:54:26;;;;;;;7.88;4.38;;;13.40;93.80;;;;;;5068184;28;20155;-71
2022/03/16 12:57:09;;;;;;;9.25;4.65;;;13.30;93.80;;;;;;5068170;28;20288;-72
2022/03/16 12:59:52;;;;;;;12.68;4.80;;;13.30;93.90;;;;;;5049804;28;20215;-72
2022/03/16 13:02:22;;;;;;;9.18;4.93;;;13.40;93.60;;;;;;5068173;28;20161;-74
2022/03/16 13:04:52;;;;;;;5.50;4.18;;;13.30;93.80;;;;;;5068338;28;20158;-75
2022/03/16 13:07:20;;;;;;;11.88;5.13;;;13.40;93.80;;;;;;5050282;28;20173;-73
2022/03/16 13:09:46;;;;;;;7.20;5.00;;;13.50;93.60;;;;;;5068407;28;20251;-72